createdAt,value
2018-08-31T00:02:20.326Z,2.57
2018-08-31T00:04:55.485Z,1.90
2018-08-31T00:09:38.040Z,2.83
2018-08-31T00:12:39.768Z,2.03
2018-08-31T00:15:03.701Z,1.93
2018-08-31T00:17:27.570Z,2.20
2018-08-31T00:19:51.457Z,2.47
2018-08-31T00:22:15.367Z,1.50
2018-08-31T00:26:57.354Z,2.10
2018-08-31T00:29:50.095Z,1.77
2018-08-31T00:34:30.063Z,1.80
2018-08-31T00:37:37.880Z,1.77
2018-08-31T00:42:18.647Z,2.00
2018-08-31T00:44:54.025Z,2.37
2018-08-31T00:47:18.084Z,1.90
2018-08-31T00:49:41.983Z,2.10
2018-08-31T00:52:05.829Z,2.03
2018-08-31T00:54:29.797Z,2.00
2018-08-31T00:56:53.682Z,2.60
2018-08-31T00:59:17.571Z,2.40
2018-08-31T01:01:41.460Z,2.23
2018-08-31T01:04:05.374Z,1.90
2018-08-31T01:06:29.275Z,1.97
2018-08-31T01:08:53.166Z,2.00
2018-08-31T01:11:17.051Z,2.30
2018-08-31T01:13:40.948Z,1.87
2018-08-31T01:16:04.817Z,2.00
2018-08-31T01:18:28.690Z,2.00
2018-08-31T01:20:52.700Z,2.37
2018-08-31T01:23:16.596Z,1.90
2018-08-31T01:25:40.451Z,2.20
2018-08-31T01:28:04.567Z,2.03
2018-08-31T01:30:28.989Z,2.83
2018-08-31T01:32:52.914Z,2.00
2018-08-31T01:35:16.814Z,2.20
2018-08-31T01:37:40.702Z,1.97
2018-08-31T01:40:04.633Z,2.67
2018-08-31T01:42:28.471Z,2.00
2018-08-31T01:44:52.361Z,2.20
2018-08-31T01:47:16.236Z,2.13
2018-08-31T01:49:40.130Z,2.40
2018-08-31T01:52:03.977Z,2.20
2018-08-31T01:54:27.876Z,1.80
2018-08-31T01:56:52.090Z,1.70
2018-08-31T01:59:16.018Z,2.50
2018-08-31T02:01:39.943Z,2.07
2018-08-31T02:04:04.150Z,2.30
2018-08-31T02:06:28.038Z,1.87
2018-08-31T02:08:57.418Z,2.17
2018-08-31T02:11:21.351Z,2.10
2018-08-31T02:13:45.237Z,2.37
2018-08-31T02:16:09.111Z,2.10
2018-08-31T02:18:33.090Z,2.33
2018-08-31T02:20:57.092Z,2.10
2018-08-31T02:23:21.060Z,1.80
2018-08-31T02:25:45.052Z,2.20
2018-08-31T02:28:08.909Z,2.07
2018-08-31T02:30:32.767Z,2.50
2018-08-31T02:32:56.686Z,2.10
2018-08-31T02:35:20.531Z,2.67
2018-08-31T02:37:44.419Z,2.37
2018-08-31T02:40:08.341Z,2.10
2018-08-31T02:42:32.342Z,2.10
2018-08-31T02:44:56.192Z,2.30
2018-08-31T02:47:20.063Z,2.27
2018-08-31T02:49:44.046Z,2.80
2018-08-31T02:52:07.915Z,2.27
2018-08-31T02:54:31.810Z,2.03
2018-08-31T02:56:55.695Z,2.50
2018-08-31T02:59:19.534Z,2.30
2018-08-31T03:01:43.518Z,2.10
2018-08-31T03:04:07.390Z,2.80
2018-08-31T03:06:31.264Z,2.17
2018-08-31T03:08:55.159Z,2.80
2018-08-31T03:11:19.068Z,2.40
2018-08-31T03:13:43.085Z,2.40
2018-08-31T03:16:06.985Z,2.57
2018-08-31T03:18:30.855Z,2.40
2018-08-31T03:20:54.912Z,2.27
2018-08-31T03:23:18.777Z,2.73
2018-08-31T03:25:42.751Z,2.63
2018-08-31T03:28:06.662Z,2.40
2018-08-31T03:30:30.563Z,2.60
2018-08-31T03:32:54.547Z,2.40
2018-08-31T03:35:18.412Z,2.53
2018-08-31T03:37:42.293Z,2.47
2018-08-31T03:40:06.213Z,2.67
2018-08-31T03:42:30.067Z,2.47
2018-08-31T03:44:54.169Z,2.50
2018-08-31T03:47:18.124Z,2.20
2018-08-31T03:49:42.050Z,2.13
2018-08-31T03:52:05.929Z,2.67
2018-08-31T03:54:29.873Z,2.40
2018-08-31T03:56:53.740Z,2.77
2018-08-31T03:59:17.691Z,2.57
2018-08-31T04:01:41.568Z,2.40
2018-08-31T04:04:05.459Z,2.43
2018-08-31T04:06:30.047Z,2.30
2018-08-31T04:08:53.965Z,2.80
2018-08-31T04:11:17.852Z,2.57
2018-08-31T04:13:41.759Z,2.50
2018-08-31T04:16:05.628Z,2.67
2018-08-31T04:18:29.631Z,2.80
2018-08-31T04:20:53.505Z,2.37
2018-08-31T04:23:17.370Z,2.13
2018-08-31T04:25:41.281Z,2.83
2018-08-31T04:28:05.346Z,2.27
2018-08-31T04:30:29.328Z,2.70
2018-08-31T04:32:53.216Z,2.63
2018-08-31T04:35:17.086Z,2.70
2018-08-31T04:37:40.940Z,2.60
2018-08-31T04:40:05.876Z,2.47
2018-08-31T04:42:29.794Z,2.50
2018-08-31T04:44:53.617Z,2.60
2018-08-31T04:47:17.524Z,2.63
2018-08-31T04:49:41.373Z,2.37
2018-08-31T04:52:05.315Z,2.37
2018-08-31T04:54:29.287Z,2.60
2018-08-31T04:56:53.172Z,2.70
2018-08-31T04:59:17.070Z,2.30
2018-08-31T05:01:40.887Z,2.63
2018-08-31T05:04:04.766Z,2.73
2018-08-31T05:06:28.654Z,3.07
2018-08-31T05:08:52.533Z,3.10
2018-08-31T05:11:16.593Z,2.97
2018-08-31T05:13:40.837Z,2.80
2018-08-31T05:16:04.782Z,2.30
2018-08-31T05:18:28.680Z,2.90
2018-08-31T05:20:52.581Z,2.87
2018-08-31T05:23:16.490Z,3.67
2018-08-31T05:25:40.619Z,3.13
2018-08-31T05:28:04.557Z,2.80
2018-08-31T05:30:28.560Z,2.93
2018-08-31T05:32:52.468Z,2.73
2018-08-31T05:35:16.320Z,2.53
2018-08-31T05:37:40.297Z,2.47
2018-08-31T05:40:04.223Z,2.50
2018-08-31T05:42:28.178Z,2.97
2018-08-31T05:44:52.084Z,2.50
2018-08-31T05:47:16.065Z,3.03
2018-08-31T05:49:39.941Z,2.57
2018-08-31T05:52:03.792Z,2.90
2018-08-31T05:54:27.998Z,2.93
2018-08-31T05:56:51.842Z,3.00
2018-08-31T05:59:15.686Z,2.73
2018-08-31T06:01:39.557Z,2.97
2018-08-31T06:04:03.464Z,2.80
2018-08-31T06:06:27.619Z,2.83
2018-08-31T06:08:51.488Z,2.50
2018-08-31T06:11:15.357Z,2.63
2018-08-31T06:13:39.246Z,2.60
2018-08-31T06:16:03.131Z,2.47
2018-08-31T06:18:27.078Z,2.50
2018-08-31T06:20:50.949Z,2.40
2018-08-31T06:23:14.816Z,2.37
2018-08-31T06:25:38.761Z,2.00
2018-08-31T06:28:02.622Z,2.50
2018-08-31T06:30:26.508Z,2.23
2018-08-31T06:32:50.410Z,2.60
2018-08-31T06:35:14.428Z,2.40
2018-08-31T06:37:38.305Z,2.30
2018-08-31T06:40:02.166Z,2.47
2018-08-31T06:42:26.053Z,2.07
2018-08-31T06:44:49.904Z,2.10
2018-08-31T06:47:13.946Z,2.57
2018-08-31T06:49:37.824Z,2.33
2018-08-31T06:52:01.961Z,2.20
2018-08-31T06:54:25.966Z,2.40
2018-08-31T06:56:50.321Z,2.20
2018-08-31T06:59:14.172Z,2.03
2018-08-31T07:01:38.159Z,2.20
2018-08-31T07:04:02.130Z,2.47
2018-08-31T07:06:26.021Z,1.87
2018-08-31T07:08:49.995Z,1.73
2018-08-31T07:11:13.864Z,2.00
2018-08-31T07:13:37.844Z,2.50
2018-08-31T07:16:01.708Z,2.00
2018-08-31T07:18:25.755Z,1.70
2018-08-31T07:20:49.651Z,1.60
2018-08-31T07:23:13.499Z,2.10
2018-08-31T07:25:37.479Z,1.70
2018-08-31T07:28:01.410Z,2.17
2018-08-31T07:30:25.307Z,1.70
2018-08-31T07:32:49.280Z,1.60
2018-08-31T07:35:13.157Z,2.77
2018-08-31T07:37:37.033Z,1.73
2018-08-31T07:40:01.003Z,1.67
2018-08-31T07:42:24.944Z,1.80
2018-08-31T07:44:48.904Z,1.60
2018-08-31T07:47:12.760Z,1.80
2018-08-31T07:49:36.623Z,1.50
2018-08-31T07:52:00.508Z,1.77
2018-08-31T07:54:24.430Z,1.53
2018-08-31T07:56:48.709Z,1.73
2018-08-31T07:59:12.566Z,1.80
2018-08-31T08:01:36.456Z,1.40
2018-08-31T08:04:00.324Z,2.23
2018-08-31T08:06:24.250Z,2.13
2018-08-31T08:08:48.266Z,1.93
2018-08-31T08:11:12.137Z,1.50
2018-08-31T08:13:36.013Z,1.83
2018-08-31T08:16:00.025Z,1.40
2018-08-31T08:18:23.941Z,2.53
2018-08-31T08:20:47.891Z,1.40
2018-08-31T08:23:11.801Z,1.60
2018-08-31T08:25:35.624Z,2.10
2018-08-31T08:27:59.809Z,1.57
2018-08-31T08:30:23.683Z,2.03
2018-08-31T08:32:47.566Z,1.70
2018-08-31T08:35:11.594Z,1.70
2018-08-31T08:37:35.464Z,1.87
2018-08-31T08:39:59.507Z,1.60
2018-08-31T08:42:23.614Z,1.60
2018-08-31T08:44:47.430Z,2.70
2018-08-31T08:47:11.400Z,1.87
2018-08-31T08:49:35.444Z,0.97
2018-08-31T08:51:59.292Z,1.53
2018-08-31T08:54:23.287Z,1.83
2018-08-31T08:56:47.168Z,2.10
2018-08-31T08:59:11.063Z,1.70
2018-08-31T09:01:34.969Z,1.70
2018-08-31T09:03:58.843Z,1.43
2018-08-31T09:06:22.818Z,1.40
2018-08-31T09:08:46.724Z,1.50
2018-08-31T09:11:10.635Z,1.70
2018-08-31T09:13:34.558Z,1.60
2018-08-31T09:15:58.430Z,1.47
2018-08-31T09:18:25.808Z,2.00
2018-08-31T09:20:49.624Z,1.37
2018-08-31T09:23:13.530Z,1.63
2018-08-31T09:25:37.473Z,1.57
2018-08-31T09:28:01.553Z,1.40
2018-08-31T09:30:30.888Z,1.50
2018-08-31T09:32:54.767Z,1.27
2018-08-31T09:35:18.770Z,1.40
2018-08-31T09:37:42.717Z,1.40
2018-08-31T09:40:06.599Z,1.70
2018-08-31T09:42:30.488Z,1.33
2018-08-31T09:44:54.343Z,1.87
2018-08-31T09:47:18.368Z,1.90
2018-08-31T09:49:42.866Z,1.30
2018-08-31T09:52:06.655Z,1.90
2018-08-31T09:54:30.658Z,1.87
2018-08-31T09:56:54.529Z,1.73
2018-08-31T09:59:18.535Z,1.63
2018-08-31T10:01:42.453Z,1.50
2018-08-31T10:04:06.337Z,1.47
2018-08-31T10:06:31.233Z,1.53
2018-08-31T10:08:55.147Z,2.07
2018-08-31T10:11:19.059Z,1.90
2018-08-31T10:13:42.902Z,1.70
2018-08-31T10:16:06.828Z,2.00
2018-08-31T10:18:30.757Z,1.53
2018-08-31T10:20:54.634Z,1.77
2018-08-31T10:23:18.525Z,2.07
2018-08-31T10:25:42.430Z,1.83
2018-08-31T10:28:06.349Z,1.93
2018-08-31T10:30:30.500Z,1.73
2018-08-31T10:32:54.380Z,2.33
2018-08-31T10:35:18.512Z,2.13
2018-08-31T10:37:42.401Z,1.87
2018-08-31T10:40:06.361Z,2.37
2018-08-31T10:42:30.404Z,1.70
2018-08-31T10:44:54.348Z,1.80
2018-08-31T10:47:18.226Z,1.50
2018-08-31T10:49:42.146Z,3.77
2018-08-31T10:52:06.114Z,1.67
2018-08-31T10:54:30.168Z,1.90
2018-08-31T10:56:54.066Z,1.47
2018-08-31T10:59:17.989Z,1.27
2018-08-31T11:01:41.919Z,1.40
2018-08-31T11:04:05.826Z,1.50
2018-08-31T11:06:29.871Z,1.87
2018-08-31T11:08:53.804Z,1.80
2018-08-31T11:11:17.680Z,1.67
2018-08-31T11:13:41.569Z,1.60
2018-08-31T11:16:05.495Z,1.33
2018-08-31T11:18:29.503Z,1.97
2018-08-31T11:20:53.428Z,1.33
2018-08-31T11:23:17.314Z,1.27
2018-08-31T11:25:41.200Z,1.23
2018-08-31T11:28:05.146Z,1.20
2018-08-31T11:30:29.190Z,1.37
2018-08-31T11:32:53.167Z,1.00
2018-08-31T11:35:17.068Z,1.70
2018-08-31T11:37:40.983Z,1.37
2018-08-31T11:40:05.027Z,1.30
2018-08-31T11:42:28.939Z,1.37
2018-08-31T11:44:53.144Z,2.10
2018-08-31T11:47:17.002Z,1.57
2018-08-31T11:49:40.951Z,1.60
2018-08-31T11:52:04.850Z,1.40
2018-08-31T11:54:28.788Z,1.20
2018-08-31T11:56:52.702Z,1.40
2018-08-31T11:59:16.566Z,1.10
2018-08-31T12:01:40.460Z,1.47
2018-08-31T12:04:04.412Z,1.70
2018-08-31T12:06:28.282Z,1.40
2018-08-31T12:08:52.181Z,1.13
2018-08-31T12:11:16.099Z,1.00
2018-08-31T12:13:40.302Z,1.87
2018-08-31T12:16:04.197Z,1.30
2018-08-31T12:18:28.138Z,1.30
2018-08-31T12:20:52.052Z,1.07
2018-08-31T12:23:15.975Z,1.10
2018-08-31T12:25:39.852Z,1.30
2018-08-31T12:28:03.724Z,1.27
2018-08-31T12:30:27.672Z,1.17
2018-08-31T12:32:51.590Z,1.27
2018-08-31T12:35:15.466Z,1.27
2018-08-31T12:37:39.394Z,1.00
2018-08-31T12:40:03.283Z,1.60
2018-08-31T12:42:27.131Z,1.00
2018-08-31T12:44:51.083Z,1.20
2018-08-31T12:47:15.004Z,1.10
2018-08-31T12:49:38.879Z,1.73
2018-08-31T12:52:02.852Z,1.33
2018-08-31T12:54:26.767Z,0.97
2018-08-31T12:56:50.675Z,1.47
2018-08-31T12:59:14.614Z,1.30
2018-08-31T13:01:38.523Z,1.70
2018-08-31T13:04:02.459Z,1.00
2018-08-31T13:06:26.357Z,1.77
2018-08-31T13:08:50.256Z,1.30
2018-08-31T13:11:14.214Z,1.40
2018-08-31T13:13:38.075Z,1.40
2018-08-31T13:16:02.011Z,1.23
2018-08-31T13:18:25.899Z,1.20
2018-08-31T13:20:50.645Z,1.17
2018-08-31T13:23:14.623Z,1.13
2018-08-31T13:25:38.471Z,1.40
2018-08-31T13:28:02.402Z,1.57
2018-08-31T13:30:26.263Z,1.30
2018-08-31T13:32:50.149Z,1.40
2018-08-31T13:35:14.056Z,1.10
2018-08-31T13:37:37.968Z,0.90
2018-08-31T13:40:01.901Z,1.50
2018-08-31T13:42:25.770Z,1.00
2018-08-31T13:44:49.674Z,1.10
2018-08-31T13:47:13.648Z,1.67
2018-08-31T13:49:37.497Z,1.10
2018-08-31T13:52:01.422Z,1.40
2018-08-31T13:54:25.415Z,1.33
2018-08-31T13:56:49.348Z,1.33
2018-08-31T13:59:13.247Z,1.20
2018-08-31T14:01:37.138Z,1.03
2018-08-31T14:04:01.134Z,1.37
2018-08-31T14:06:25.057Z,1.20
2018-08-31T14:08:48.973Z,1.27
2018-08-31T14:11:12.916Z,1.33
2018-08-31T14:13:36.799Z,1.20
2018-08-31T14:16:00.803Z,1.20
2018-08-31T14:18:24.732Z,1.00
2018-08-31T14:20:48.589Z,1.43
2018-08-31T14:23:12.508Z,1.30
2018-08-31T14:25:36.428Z,1.37
2018-08-31T14:28:00.312Z,1.73
2018-08-31T14:30:24.195Z,1.43
2018-08-31T14:32:48.257Z,1.20
2018-08-31T14:35:12.138Z,1.20
2018-08-31T14:37:36.147Z,1.20
2018-08-31T14:40:00.036Z,1.17
2018-08-31T14:42:23.935Z,1.53
2018-08-31T14:44:47.836Z,1.13
2018-08-31T14:47:12.116Z,1.00
2018-08-31T14:49:36.156Z,1.30
2018-08-31T14:52:00.024Z,1.30
2018-08-31T14:54:23.938Z,1.23
2018-08-31T14:56:47.971Z,1.23
2018-08-31T14:59:12.026Z,1.20
2018-08-31T15:01:36.000Z,1.30
2018-08-31T15:03:59.901Z,1.30
2018-08-31T15:06:23.832Z,1.40
2018-08-31T15:08:47.781Z,1.10
2018-08-31T15:11:11.711Z,1.23
2018-08-31T15:13:35.759Z,1.30
2018-08-31T15:15:59.630Z,1.37
2018-08-31T15:18:23.576Z,1.20
2018-08-31T15:20:47.482Z,1.33
2018-08-31T15:23:11.368Z,1.23
2018-08-31T15:25:35.506Z,1.23
2018-08-31T15:27:59.338Z,1.30
2018-08-31T15:30:23.262Z,1.30
2018-08-31T15:32:47.248Z,1.60
2018-08-31T15:35:11.144Z,1.30
2018-08-31T15:37:35.541Z,1.50
2018-08-31T15:39:59.551Z,1.10
2018-08-31T15:42:23.638Z,1.43
2018-08-31T15:44:47.382Z,1.97
2018-08-31T15:47:11.319Z,1.20
2018-08-31T15:49:35.290Z,1.40
2018-08-31T15:51:59.101Z,1.23
2018-08-31T15:54:23.031Z,1.40
2018-08-31T15:56:46.941Z,1.10
2018-08-31T15:59:10.991Z,1.33
2018-08-31T16:01:34.869Z,1.43
2018-08-31T16:03:58.770Z,1.37
2018-08-31T16:06:22.820Z,1.20
2018-08-31T16:08:46.814Z,1.27
2018-08-31T16:11:10.810Z,1.43
2018-08-31T16:13:34.718Z,1.17
2018-08-31T16:15:58.657Z,1.30
2018-08-31T16:18:22.632Z,1.40
2018-08-31T16:20:46.642Z,1.40
2018-08-31T16:23:10.586Z,1.40
2018-08-31T16:25:34.467Z,1.47
2018-08-31T16:27:58.419Z,1.20
2018-08-31T16:30:22.280Z,1.30
2018-08-31T16:32:46.156Z,1.20
2018-08-31T16:35:10.052Z,1.30
2018-08-31T16:37:33.987Z,1.30
2018-08-31T16:39:57.895Z,1.20
2018-08-31T16:42:21.811Z,1.30
2018-08-31T16:44:45.764Z,1.40
2018-08-31T16:47:10.407Z,1.30
2018-08-31T16:49:34.314Z,1.43
2018-08-31T16:51:58.237Z,1.30
2018-08-31T16:54:22.107Z,1.37
2018-08-31T16:56:46.272Z,1.50
2018-08-31T16:59:10.202Z,1.40
2018-08-31T17:01:34.075Z,1.30
2018-08-31T17:03:58.008Z,1.20
2018-08-31T17:06:21.932Z,1.30
2018-08-31T17:08:45.820Z,1.60
2018-08-31T17:11:09.845Z,1.30
2018-08-31T17:13:33.761Z,1.60
2018-08-31T17:15:57.746Z,1.97
2018-08-31T17:18:21.621Z,1.63
2018-08-31T17:20:45.484Z,1.60
2018-08-31T17:23:09.391Z,1.43
2018-08-31T17:25:33.265Z,1.37
2018-08-31T17:28:02.349Z,1.50
2018-08-31T17:30:26.254Z,1.50
2018-08-31T17:32:55.485Z,1.20
2018-08-31T17:35:24.836Z,1.27
2018-08-31T17:37:48.724Z,1.40
2018-08-31T17:40:12.607Z,1.33
2018-08-31T17:42:39.124Z,1.33
2018-08-31T17:45:03.119Z,1.57
2018-08-31T17:47:27.064Z,1.50
2018-08-31T17:49:51.034Z,1.60
2018-08-31T17:52:15.060Z,1.33
2018-08-31T17:54:39.027Z,1.30
2018-08-31T17:57:02.932Z,1.63
2018-08-31T17:59:26.834Z,1.30
2018-08-31T18:01:50.783Z,1.57
2018-08-31T18:04:15.312Z,1.03
2018-08-31T18:06:39.210Z,1.30
2018-08-31T18:09:04.030Z,1.30
2018-08-31T18:11:28.002Z,1.60
2018-08-31T18:13:51.956Z,1.80
2018-08-31T18:16:15.925Z,1.90
2018-08-31T18:18:39.781Z,1.90
2018-08-31T18:21:03.688Z,1.40
2018-08-31T18:23:27.590Z,1.67
2018-08-31T18:25:51.679Z,1.60
2018-08-31T18:28:15.498Z,1.30
2018-08-31T18:30:39.594Z,1.20
2018-08-31T18:33:03.603Z,1.40
2018-08-31T18:35:27.565Z,1.30
2018-08-31T18:37:51.535Z,1.40
2018-08-31T18:40:15.403Z,1.90
2018-08-31T18:42:40.193Z,1.20
2018-08-31T18:45:04.097Z,1.40
2018-08-31T18:47:27.994Z,1.43
2018-08-31T18:49:51.944Z,1.30
2018-08-31T18:52:15.831Z,1.60
2018-08-31T18:54:39.736Z,1.73
2018-08-31T18:57:03.635Z,1.57
2018-08-31T18:59:27.573Z,1.73
2018-08-31T19:01:51.475Z,1.50
2018-08-31T19:04:15.429Z,1.73
2018-08-31T19:06:39.316Z,1.60
2018-08-31T19:09:05.279Z,1.50
2018-08-31T19:11:29.242Z,1.53
2018-08-31T19:13:53.159Z,1.70
2018-08-31T19:16:17.081Z,1.50
2018-08-31T19:18:41.035Z,1.60
2018-08-31T19:21:05.244Z,1.13
2018-08-31T19:23:29.617Z,1.53
2018-08-31T19:25:53.561Z,1.53
2018-08-31T19:28:17.684Z,1.53
2018-08-31T19:30:41.611Z,1.00
2018-08-31T19:33:05.535Z,1.23
2018-08-31T19:35:29.505Z,1.40
2018-08-31T19:37:53.458Z,1.30
2018-08-31T19:40:17.751Z,1.40
2018-08-31T19:42:41.726Z,1.40
2018-08-31T19:45:07.951Z,1.40
2018-08-31T19:47:32.085Z,1.13
2018-08-31T19:49:55.990Z,1.40
2018-08-31T19:52:19.897Z,1.20
2018-08-31T19:54:44.157Z,1.37
2018-08-31T19:57:08.074Z,1.13
2018-08-31T19:59:31.992Z,1.50
2018-08-31T20:01:55.939Z,1.53
2018-08-31T20:04:19.814Z,1.30
2018-08-31T20:06:43.900Z,1.40
2018-08-31T20:09:08.970Z,1.27
2018-08-31T20:11:33.090Z,1.37
2018-08-31T20:13:57.089Z,1.13
2018-08-31T20:16:20.998Z,1.40
2018-08-31T20:18:45.355Z,1.47
2018-08-31T20:21:09.325Z,1.37
2018-08-31T20:23:33.284Z,1.20
2018-08-31T20:25:57.281Z,1.43
2018-08-31T20:28:21.200Z,1.53
2018-08-31T20:30:45.099Z,1.60
2018-08-31T20:33:09.183Z,1.20
2018-08-31T20:35:33.075Z,1.67
2018-08-31T20:37:57.665Z,1.73
2018-08-31T20:40:21.568Z,1.70
2018-08-31T20:42:45.445Z,1.70
2018-08-31T20:45:09.714Z,1.80
2018-08-31T20:47:33.629Z,1.77
2018-08-31T20:49:57.659Z,1.57
2018-08-31T20:52:21.559Z,1.33
2018-08-31T20:54:45.458Z,1.57
2018-08-31T20:57:09.544Z,1.60
2018-08-31T20:59:33.408Z,2.27
2018-08-31T21:01:57.327Z,1.90
2018-08-31T21:04:21.375Z,2.17
2018-08-31T21:06:46.195Z,2.00
2018-08-31T21:09:11.345Z,1.77
2018-08-31T21:11:35.245Z,1.50
2018-08-31T21:13:59.259Z,1.70
2018-08-31T21:16:23.245Z,1.20
2018-08-31T21:18:47.111Z,1.83
2018-08-31T21:21:11.234Z,1.57
2018-08-31T21:23:35.175Z,1.50
2018-08-31T21:25:59.054Z,2.37
2018-08-31T21:28:22.965Z,1.33
2018-08-31T21:30:46.869Z,1.60
2018-08-31T21:33:11.121Z,1.70
2018-08-31T21:35:35.019Z,1.70
2018-08-31T21:37:58.901Z,1.53
2018-08-31T21:40:22.832Z,1.50
2018-08-31T21:42:46.720Z,1.43
2018-08-31T21:45:10.715Z,1.43
2018-08-31T21:47:34.661Z,1.67
2018-08-31T21:49:58.635Z,1.80
2018-08-31T21:52:22.591Z,1.80
2018-08-31T21:54:46.458Z,2.43
2018-08-31T21:57:10.452Z,1.53
2018-08-31T21:59:34.291Z,1.73
2018-08-31T22:01:58.187Z,1.87
2018-08-31T22:04:22.567Z,1.90
2018-08-31T22:06:46.683Z,1.83
2018-08-31T22:09:11.044Z,1.60
2018-08-31T22:11:35.033Z,1.40
2018-08-31T22:13:58.934Z,2.00
2018-08-31T22:16:22.809Z,1.90
2018-08-31T22:18:46.816Z,1.97
2018-08-31T22:21:10.739Z,2.00
2018-08-31T22:23:34.662Z,2.03
2018-08-31T22:25:58.587Z,1.90
2018-08-31T22:28:22.542Z,1.60
2018-08-31T22:30:46.400Z,1.87
2018-08-31T22:33:10.296Z,1.70
2018-08-31T22:35:34.217Z,2.03
2018-08-31T22:37:58.099Z,2.10
2018-08-31T22:40:21.979Z,1.80
2018-08-31T22:42:45.872Z,1.50
2018-08-31T22:45:15.647Z,1.83
2018-08-31T22:47:39.586Z,2.00
2018-08-31T22:50:03.481Z,2.23
2018-08-31T22:52:27.326Z,2.10
2018-08-31T22:54:51.312Z,2.10
2018-08-31T22:57:15.283Z,2.37
2018-08-31T22:59:39.209Z,2.00
2018-08-31T23:02:03.127Z,2.00
2018-08-31T23:04:26.969Z,2.07
2018-08-31T23:06:50.839Z,1.77
2018-08-31T23:09:14.790Z,1.70
2018-08-31T23:11:38.680Z,2.00
2018-08-31T23:14:02.607Z,1.83
2018-08-31T23:16:26.546Z,1.93
2018-08-31T23:18:50.395Z,2.00
2018-08-31T23:21:14.272Z,2.20
2018-08-31T23:23:43.543Z,1.73
2018-08-31T23:26:07.398Z,2.00
2018-08-31T23:28:31.292Z,2.10
2018-08-31T23:30:55.144Z,2.23
2018-08-31T23:33:19.014Z,2.87
2018-08-31T23:35:42.906Z,2.43
2018-08-31T23:38:06.841Z,1.90
2018-08-31T23:40:30.752Z,2.40
2018-08-31T23:42:54.621Z,2.90
2018-08-31T23:45:18.524Z,2.57
2018-08-31T23:47:42.428Z,2.20
2018-08-31T23:50:06.332Z,2.30
2018-08-31T23:52:30.209Z,2.20
2018-08-31T23:54:54.069Z,2.40
2018-08-31T23:57:17.932Z,2.47
2018-08-31T23:59:41.824Z,2.63
